Tihoreck, Russia
Current Conditions -  °F | °C
As of 11:00 PM on Sunday 21 Dec 2014 (Local Time) from URKK Reporting Station
Broken Clouds Broken Clouds  
Wind Chill: 50°   Ceiling: 5300
Heat Index: 50°   Visibility: 6mi
Dew Point: 45°   Wind: 13mph
Humidity: 82%   Direction: 210°SSW
Pressure: 29.83"   Gusts: NA
Location:  45.85°N, 40.13°E
Report Text: URKK 212000Z 21006MPS 9999 SCT030CB BKN053 10/07 Q1010 TEMPO3000 -TSRA SCT007 BKN020CB RMK QFE754 SC065
Loading
Personal Weather Stations






























Interactive Weather Map New forecast layout! Learn more

10-Day Weather Forecast

Advertisements
Track Severe Weather on mobile